Time;durP1;ratioP1;P1;durP2;ratioP2;P2;SDS_P1;SDS_P2;PMS_P1;PMS_P2;Temp;Humidity;BMP_temperature;BMP_pressure;BME280_temperature;BME280_humidity;BME280_pressure;Samples;Min_cycle;Max_cycle;Signal;HPM_P1;HPM_P2
2024/04/18 00:00:29;;;;;;;0.83;0.53;;;;;;;;;;5374246;26;86038;-44
2024/04/18 00:02:55;;;;;;;0.28;0.20;;;;;;;;;;5376279;26;86538;-45
2024/04/18 00:05:20;;;;;;;0.98;0.63;;;;;;;;;;5383109;26;85028;-47
2024/04/18 00:07:45;;;;;;;0.47;0.43;;;;;;;;;;5388494;26;86391;-49
2024/04/18 00:10:11;;;;;;;1.70;0.40;;;;;;;;;;5388116;25;85437;-43
2024/04/18 00:12:36;;;;;;;0.93;0.50;;;;;;;;;;5380953;26;85636;-46
2024/04/18 00:15:01;;;;;;;4.03;0.70;;;;;;;;;;5381015;26;85365;-45
2024/04/18 00:17:26;;;;;;;1.60;0.43;;;;;;;;;;5372690;26;86246;-43
2024/04/18 00:19:52;;;;;;;2.00;0.60;;;;;;;;;;5390055;25;87880;-43
2024/04/18 00:22:17;;;;;;;1.50;0.60;;;;;;;;;;5390695;26;86060;-46
2024/04/18 00:24:42;;;;;;;0.70;0.40;;;;;;;;;;5387918;26;85846;-49
2024/04/18 00:27:07;;;;;;;1.93;0.57;;;;;;;;;;5375399;26;86760;-44
2024/04/18 00:29:36;;;;;;;0.43;0.37;;;;;;;;;;5375000;26;85963;-45
2024/04/18 00:32:01;;;;;;;0.52;0.38;;;;;;;;;;5381577;26;85587;-43
2024/04/18 00:34:26;;;;;;;0.80;0.37;;;;;;;;;;5395652;26;85378;-46
2024/04/18 00:36:52;;;;;;;0.93;0.40;;;;;;;;;;5388689;26;84807;-44
2024/04/18 00:39:17;;;;;;;5.10;0.70;;;;;;;;;;5385923;26;84414;-50
2024/04/18 00:41:42;;;;;;;0.70;0.33;;;;;;;;;;5380844;26;86048;-47
2024/04/18 00:44:09;;;;;;;0.53;0.50;;;;;;;;;;5380863;26;86500;-44
2024/04/18 00:46:34;;;;;;;0.80;0.30;;;;;;;;;;5388391;26;86405;-45
2024/04/18 00:49:00;;;;;;;0.40;0.30;;;;;;;;;;5389995;25;85126;-44
2024/04/18 00:51:25;;;;;;;0.33;0.33;;;;;;;;;;5387395;26;86435;-47
2024/04/18 00:53:51;;;;;;;2.20;0.50;;;;;;;;;;5389351;25;85113;-43
2024/04/18 00:56:16;;;;;;;0.33;0.20;;;;;;;;;;5385050;25;85353;-43
2024/04/18 00:58:41;;;;;;;0.90;0.50;;;;;;;;;;5390245;26;85657;-44
2024/04/18 01:01:07;;;;;;;0.40;0.33;;;;;;;;;;5389231;26;85696;-44
2024/04/18 01:03:32;;;;;;;1.50;0.40;;;;;;;;;;5390003;26;84683;-45
2024/04/18 01:05:57;;;;;;;0.53;0.30;;;;;;;;;;5389675;26;85236;-43
2024/04/18 01:08:22;;;;;;;1.50;0.50;;;;;;;;;;5380506;26;85599;-48
2024/04/18 01:10:48;;;;;;;1.60;0.55;;;;;;;;;;5380513;25;86201;-47
2024/04/18 01:13:13;;;;;;;0.50;0.40;;;;;;;;;;5386566;25;85202;-44
2024/04/18 01:15:39;;;;;;;0.70;0.40;;;;;;;;;;5386700;26;85284;-47
2024/04/18 01:18:04;;;;;;;0.97;0.43;;;;;;;;;;5392026;26;85263;-43
2024/04/18 01:20:29;;;;;;;0.77;0.33;;;;;;;;;;5386701;26;85944;-43
2024/04/18 01:22:55;;;;;;;1.07;0.60;;;;;;;;;;5388281;26;85127;-44
2024/04/18 01:25:20;;;;;;;0.90;0.47;;;;;;;;;;5384997;26;85688;-46
2024/04/18 01:27:45;;;;;;;0.70;0.40;;;;;;;;;;5385605;26;87063;-48
2024/04/18 01:30:10;;;;;;;0.60;0.30;;;;;;;;;;5388358;25;86236;-45
2024/04/18 01:32:36;;;;;;;1.10;0.40;;;;;;;;;;5380858;26;85788;-42
2024/04/18 01:35:02;;;;;;;0.90;0.30;;;;;;;;;;5392404;26;86665;-44
2024/04/18 01:37:27;;;;;;;0.80;0.30;;;;;;;;;;5374749;26;85251;-44
2024/04/18 01:39:52;;;;;;;1.00;0.50;;;;;;;;;;5375866;26;85642;-43
2024/04/18 01:42:18;;;;;;;0.53;0.40;;;;;;;;;;5376776;26;85898;-47
2024/04/18 01:44:44;;;;;;;1.60;0.40;;;;;;;;;;5371792;26;86648;-44
2024/04/18 01:47:09;;;;;;;0.55;0.30;;;;;;;;;;5375464;26;85904;-43
2024/04/18 01:49:35;;;;;;;1.37;0.50;;;;;;;;;;5377639;26;85810;-45
2024/04/18 01:52:00;;;;;;;1.10;0.47;;;;;;;;;;5393553;26;85579;-45
2024/04/18 01:54:25;;;;;;;1.63;0.50;;;;;;;;;;5393272;26;86645;-45
2024/04/18 01:56:50;;;;;;;1.73;0.17;;;;;;;;;;5387145;26;85458;-45
2024/04/18 01:59:16;;;;;;;3.20;0.37;;;;;;;;;;5381120;26;86827;-47
2024/04/18 02:01:41;;;;;;;1.10;0.47;;;;;;;;;;5382054;26;85550;-45
2024/04/18 02:04:06;;;;;;;1.50;0.50;;;;;;;;;;5382186;26;85567;-46
2024/04/18 02:06:31;;;;;;;0.57;0.30;;;;;;;;;;5392668;26;85747;-44
2024/04/18 02:08:56;;;;;;;0.77;0.47;;;;;;;;;;5377518;25;85494;-46
2024/04/18 02:11:22;;;;;;;0.50;0.20;;;;;;;;;;5390178;26;85066;-47
2024/04/18 02:13:47;;;;;;;0.57;0.27;;;;;;;;;;5376976;26;85840;-45
2024/04/18 02:16:12;;;;;;;0.87;0.50;;;;;;;;;;5379949;26;84491;-43
2024/04/18 02:18:37;;;;;;;1.03;0.23;;;;;;;;;;5384656;26;85429;-43
2024/04/18 02:21:03;;;;;;;1.00;0.50;;;;;;;;;;5391838;26;85041;-44
2024/04/18 02:23:28;;;;;;;2.07;0.53;;;;;;;;;;5383155;26;86760;-47
2024/04/18 02:25:53;;;;;;;0.53;0.27;;;;;;;;;;5388642;26;85638;-44
2024/04/18 02:28:18;;;;;;;1.10;0.30;;;;;;;;;;5379238;26;85658;-47
2024/04/18 02:30:44;;;;;;;3.20;0.50;;;;;;;;;;5388016;26;85744;-46
2024/04/18 02:33:09;;;;;;;1.30;0.50;;;;;;;;;;5380602;26;85315;-50
2024/04/18 02:35:34;;;;;;;0.40;0.23;;;;;;;;;;5385666;26;85973;-42
2024/04/18 02:38:00;;;;;;;1.10;0.40;;;;;;;;;;5390174;25;85609;-45
2024/04/18 02:40:25;;;;;;;0.40;0.23;;;;;;;;;;5381528;26;84361;-47
2024/04/18 02:42:50;;;;;;;0.40;0.22;;;;;;;;;;5385451;26;84887;-44
2024/04/18 02:45:15;;;;;;;2.17;0.50;;;;;;;;;;5384370;26;85083;-44
2024/04/18 02:47:41;;;;;;;0.87;0.30;;;;;;;;;;5375711;26;86825;-44
2024/04/18 02:50:06;;;;;;;0.40;0.30;;;;;;;;;;5386042;25;86263;-43
2024/04/18 02:52:31;;;;;;;0.50;0.33;;;;;;;;;;5373873;26;85768;-44
2024/04/18 02:54:57;;;;;;;1.33;0.33;;;;;;;;;;5388304;26;86159;-43
2024/04/18 02:57:23;;;;;;;0.40;0.37;;;;;;;;;;5374546;26;85287;-46
2024/04/18 02:59:48;;;;;;;1.00;0.28;;;;;;;;;;5393875;25;85331;-48
2024/04/18 03:02:14;;;;;;;1.85;0.50;;;;;;;;;;5382720;26;85871;-46
2024/04/18 03:04:39;;;;;;;1.67;0.30;;;;;;;;;;5380221;26;85712;-43
2024/04/18 03:07:04;;;;;;;2.07;0.47;;;;;;;;;;5381208;25;85298;-44
2024/04/18 03:09:29;;;;;;;0.37;0.20;;;;;;;;;;5381092;26;85016;-47
2024/04/18 03:11:55;;;;;;;1.93;0.23;;;;;;;;;;5381599;26;87428;-46
2024/04/18 03:14:20;;;;;;;0.50;0.10;;;;;;;;;;5385425;25;85064;-46
2024/04/18 03:16:45;;;;;;;0.65;0.30;;;;;;;;;;5382566;26;86613;-45
2024/04/18 03:19:11;;;;;;;0.57;0.30;;;;;;;;;;5382386;26;85224;-48
2024/04/18 03:21:36;;;;;;;0.90;0.40;;;;;;;;;;5386010;25;85133;-45
2024/04/18 03:24:02;;;;;;;0.50;0.30;;;;;;;;;;5376438;26;85706;-43
2024/04/18 03:26:27;;;;;;;2.58;0.47;;;;;;;;;;5382968;26;85182;-45
2024/04/18 03:28:53;;;;;;;1.57;0.37;;;;;;;;;;5386408;26;86186;-43
2024/04/18 03:31:18;;;;;;;0.30;0.13;;;;;;;;;;5375922;26;85975;-46
2024/04/18 03:33:43;;;;;;;1.50;0.33;;;;;;;;;;5384809;26;86145;-46
2024/04/18 03:36:08;;;;;;;0.53;0.30;;;;;;;;;;5378817;26;86677;-44
2024/04/18 03:38:34;;;;;;;1.80;0.40;;;;;;;;;;5387265;26;85061;-46
2024/04/18 03:40:59;;;;;;;0.63;0.40;;;;;;;;;;5386398;26;86692;-46
2024/04/18 03:43:24;;;;;;;0.30;0.10;;;;;;;;;;5381212;26;85802;-44
2024/04/18 03:45:59;;;;;;;0.70;0.30;;;;;;;;;;5388595;26;85508;-45
2024/04/18 03:48:24;;;;;;;0.93;0.20;;;;;;;;;;5374697;26;88102;-43
2024/04/18 03:50:49;;;;;;;0.50;0.23;;;;;;;;;;5385855;26;85512;-46
2024/04/18 03:53:14;;;;;;;0.37;0.17;;;;;;;;;;5379523;26;84725;-43
2024/04/18 03:55:40;;;;;;;0.23;0.10;;;;;;;;;;5390643;26;85095;-46
2024/04/18 03:58:05;;;;;;;0.40;0.20;;;;;;;;;;5381846;26;85757;-43
2024/04/18 04:00:30;;;;;;;0.60;0.30;;;;;;;;;;5374064;26;86558;-46
2024/04/18 04:02:55;;;;;;;2.03;0.20;;;;;;;;;;5382333;26;88678;-44
2024/04/18 04:05:21;;;;;;;1.00;0.30;;;;;;;;;;5382122;26;85458;-43
2024/04/18 04:07:46;;;;;;;1.70;0.40;;;;;;;;;;5387673;26;85543;-48
2024/04/18 04:10:11;;;;;;;0.20;0.20;;;;;;;;;;5383191;26;85735;-42
2024/04/18 04:12:37;;;;;;;0.20;0.00;;;;;;;;;;5378130;26;85619;-42
2024/04/18 04:15:02;;;;;;;0.75;0.40;;;;;;;;;;5389669;26;85189;-47
2024/04/18 04:17:28;;;;;;;0.10;0.10;;;;;;;;;;5373429;26;85614;-43
2024/04/18 04:19:53;;;;;;;0.40;0.30;;;;;;;;;;5380277;25;85522;-48
2024/04/18 04:22:18;;;;;;;0.30;0.20;;;;;;;;;;5381845;26;85645;-45
2024/04/18 04:24:43;;;;;;;0.33;0.30;;;;;;;;;;5389674;25;86741;-42
2024/04/18 04:27:08;;;;;;;0.30;0.20;;;;;;;;;;5373676;26;86651;-48
2024/04/18 04:29:34;;;;;;;1.30;0.30;;;;;;;;;;5383184;26;85898;-45
2024/04/18 04:31:59;;;;;;;0.30;0.30;;;;;;;;;;5386546;26;85596;-43
2024/04/18 04:34:24;;;;;;;0.20;0.20;;;;;;;;;;5374400;26;86309;-42
2024/04/18 04:36:49;;;;;;;0.60;0.30;;;;;;;;;;5386144;25;85897;-42
2024/04/18 04:39:15;;;;;;;0.40;0.10;;;;;;;;;;5383970;26;85575;-44
2024/04/18 04:41:40;;;;;;;0.77;0.17;;;;;;;;;;5392538;26;85657;-45
2024/04/18 04:44:05;;;;;;;0.25;0.17;;;;;;;;;;5383112;26;85189;-46
2024/04/18 04:46:31;;;;;;;3.40;0.40;;;;;;;;;;5395167;25;85304;-45
2024/04/18 04:48:56;;;;;;;0.40;0.20;;;;;;;;;;5384732;25;87850;-47
2024/04/18 04:51:21;;;;;;;0.20;0.20;;;;;;;;;;5379962;26;85376;-50
2024/04/18 04:53:46;;;;;;;1.73;0.80;;;;;;;;;;5379568;26;85879;-46
2024/04/18 04:56:11;;;;;;;2.63;1.30;;;;;;;;;;5382595;25;86622;-46
2024/04/18 04:58:37;;;;;;;0.90;0.43;;;;;;;;;;5373286;26;85986;-42
2024/04/18 05:01:02;;;;;;;2.87;0.40;;;;;;;;;;5383594;26;85547;-45
2024/04/18 05:03:27;;;;;;;2.53;2.33;;;;;;;;;;5387314;26;85907;-47
2024/04/18 05:05:53;;;;;;;1.97;1.70;;;;;;;;;;5370275;26;85007;-49
2024/04/18 05:08:18;;;;;;;1.20;1.03;;;;;;;;;;5383775;26;85364;-46
2024/04/18 05:10:44;;;;;;;1.67;1.10;;;;;;;;;;5390503;25;85268;-43
2024/04/18 05:13:13;;;;;;;1.40;1.20;;;;;;;;;;5377195;26;86195;-47
2024/04/18 05:15:39;;;;;;;1.20;1.10;;;;;;;;;;5390258;26;86042;-50
2024/04/18 05:18:05;;;;;;;1.25;1.02;;;;;;;;;;5379140;26;87406;-45
2024/04/18 05:20:30;;;;;;;1.43;1.10;;;;;;;;;;5378592;26;85278;-43
2024/04/18 05:22:55;;;;;;;1.80;0.90;;;;;;;;;;5390495;26;85772;-44
2024/04/18 05:25:22;;;;;;;3.20;0.87;;;;;;;;;;5383388;26;85276;-46
2024/04/18 05:27:54;;;;;;;2.83;1.03;;;;;;;;;;5387144;25;85657;-46
2024/04/18 05:33:04;;;;;;;2.35;1.10;;;;;;;;;;5387500;26;85426;-44
2024/04/18 05:35:29;;;;;;;1.40;1.30;;;;;;;;;;5371893;26;85570;-48
2024/04/18 05:37:54;;;;;;;0.70;0.70;;;;;;;;;;5392185;26;86145;-47
2024/04/18 05:40:19;;;;;;;2.57;0.90;;;;;;;;;;5387822;25;86776;-45
2024/04/18 05:42:44;;;;;;;1.00;0.90;;;;;;;;;;5376906;26;86093;-43
2024/04/18 05:45:10;;;;;;;2.77;1.00;;;;;;;;;;5384659;26;87564;-44
2024/04/18 05:47:35;;;;;;;1.20;0.93;;;;;;;;;;5378545;26;86663;-43
2024/04/18 05:50:00;;;;;;;1.73;1.40;;;;;;;;;;5386333;26;85473;-43
2024/04/18 05:52:26;;;;;;;2.10;1.10;;;;;;;;;;5394613;26;85155;-45
2024/04/18 05:54:51;;;;;;;1.17;0.77;;;;;;;;;;5384521;25;84867;-43
2024/04/18 05:57:16;;;;;;;1.50;1.23;;;;;;;;;;5381154;26;85744;-46
2024/04/18 05:59:41;;;;;;;2.93;1.60;;;;;;;;;;5388496;25;85163;-44
2024/04/18 06:02:06;;;;;;;1.63;1.23;;;;;;;;;;5377930;25;86917;-43
2024/04/18 06:04:32;;;;;;;7.20;1.93;;;;;;;;;;5381702;26;87406;-47
2024/04/18 06:06:57;;;;;;;2.50;1.07;;;;;;;;;;5367522;26;85788;-44
2024/04/18 06:09:22;;;;;;;3.47;1.20;;;;;;;;;;5381337;26;85766;-47
2024/04/18 06:11:48;;;;;;;2.83;1.13;;;;;;;;;;5393782;26;85260;-44
2024/04/18 06:14:13;;;;;;;2.33;1.20;;;;;;;;;;5378550;26;85811;-45
2024/04/18 06:16:38;;;;;;;2.63;1.60;;;;;;;;;;5382615;26;85080;-46
2024/04/18 06:19:03;;;;;;;2.33;1.13;;;;;;;;;;5381082;25;85823;-45
2024/04/18 06:21:29;;;;;;;2.35;1.20;;;;;;;;;;5380433;26;86031;-45
2024/04/18 06:23:54;;;;;;;2.30;1.10;;;;;;;;;;5388321;26;85169;-43
2024/04/18 06:26:21;;;;;;;1.70;1.30;;;;;;;;;;5378950;26;88352;-46
2024/04/18 06:28:46;;;;;;;2.47;1.10;;;;;;;;;;5393465;26;86496;-48
2024/04/18 06:31:13;;;;;;;1.95;1.27;;;;;;;;;;5380396;26;86015;-44
2024/04/18 06:33:39;;;;;;;5.65;1.15;;;;;;;;;;5395669;26;85743;-42
2024/04/18 06:36:04;;;;;;;1.13;0.85;;;;;;;;;;5378092;26;85218;-45
2024/04/18 06:38:30;;;;;;;2.55;1.10;;;;;;;;;;5384703;25;85777;-50
2024/04/18 06:40:55;;;;;;;1.97;0.70;;;;;;;;;;5379499;26;86121;-43
2024/04/18 06:43:20;;;;;;;1.10;1.00;;;;;;;;;;5385372;26;84528;-45
2024/04/18 06:45:45;;;;;;;4.20;0.97;;;;;;;;;;5375697;26;86138;-47
2024/04/18 06:48:11;;;;;;;2.57;1.03;;;;;;;;;;5387855;25;85828;-51
2024/04/18 06:50:39;;;;;;;2.80;1.20;;;;;;;;;;5387467;26;86369;-45
2024/04/18 06:53:05;;;;;;;1.98;1.00;;;;;;;;;;5379018;26;85375;-48
2024/04/18 06:55:31;;;;;;;4.30;0.80;;;;;;;;;;5387068;26;86525;-42
2024/04/18 06:57:56;;;;;;;0.80;0.60;;;;;;;;;;5381896;26;86169;-45
2024/04/18 07:00:21;;;;;;;0.80;0.77;;;;;;;;;;5375554;25;85471;-49
2024/04/18 07:02:46;;;;;;;1.77;0.60;;;;;;;;;;5392506;26;85416;-45
2024/04/18 07:05:12;;;;;;;2.00;0.80;;;;;;;;;;5372299;26;85577;-48
2024/04/18 07:07:37;;;;;;;1.17;0.50;;;;;;;;;;5379161;26;86809;-44
2024/04/18 07:10:02;;;;;;;0.80;0.70;;;;;;;;;;5378807;26;85388;-47
2024/04/18 07:12:27;;;;;;;1.42;0.98;;;;;;;;;;5382399;26;85445;-47
2024/04/18 07:14:53;;;;;;;0.70;0.50;;;;;;;;;;5388851;26;86808;-46
2024/04/18 07:17:18;;;;;;;0.60;0.60;;;;;;;;;;5392752;25;85690;-47
2024/04/18 07:19:43;;;;;;;1.27;0.70;;;;;;;;;;5381593;26;85347;-51
2024/04/18 07:22:08;;;;;;;1.10;0.80;;;;;;;;;;5383150;26;85028;-45
2024/04/18 07:24:34;;;;;;;1.33;1.13;;;;;;;;;;5392227;26;85343;-45
2024/04/18 07:26:59;;;;;;;1.53;1.00;;;;;;;;;;5389479;26;85364;-45
2024/04/18 07:29:24;;;;;;;8.03;1.20;;;;;;;;;;5387881;26;85300;-45
2024/04/18 07:31:49;;;;;;;0.80;0.70;;;;;;;;;;5390991;25;84528;-44
2024/04/18 07:34:15;;;;;;;2.70;1.00;;;;;;;;;;5393214;26;85093;-46
2024/04/18 07:36:40;;;;;;;3.50;1.00;;;;;;;;;;5382163;26;85830;-47
2024/04/18 07:39:05;;;;;;;2.10;1.07;;;;;;;;;;5384810;26;87100;-43
2024/04/18 07:41:31;;;;;;;3.22;1.13;;;;;;;;;;5369602;26;86030;-48
2024/04/18 07:43:56;;;;;;;2.80;1.20;;;;;;;;;;5389455;26;88895;-46
2024/04/18 07:46:24;;;;;;;1.57;0.90;;;;;;;;;;5389490;26;87874;-47
2024/04/18 07:48:49;;;;;;;1.70;0.90;;;;;;;;;;5387906;26;85359;-48
2024/04/18 07:51:14;;;;;;;1.20;0.77;;;;;;;;;;5394528;26;85456;-49
2024/04/18 07:53:39;;;;;;;3.50;0.80;;;;;;;;;;5386542;26;85846;-45
2024/04/18 07:56:07;;;;;;;0.87;0.70;;;;;;;;;;5390242;26;84321;-43
2024/04/18 07:58:32;;;;;;;1.13;0.80;;;;;;;;;;5383791;25;86940;-47
2024/04/18 08:00:58;;;;;;;2.00;0.80;;;;;;;;;;5396599;25;86002;-47
2024/04/18 08:03:23;;;;;;;1.43;0.93;;;;;;;;;;5390121;26;85989;-47
2024/04/18 08:05:48;;;;;;;1.90;0.80;;;;;;;;;;5371349;26;85854;-46
2024/04/18 08:08:14;;;;;;;3.73;0.93;;;;;;;;;;5378570;26;86467;-49
2024/04/18 08:10:39;;;;;;;2.40;1.20;;;;;;;;;;5384058;26;85540;-47
2024/04/18 08:13:05;;;;;;;1.40;0.70;;;;;;;;;;5384083;25;85902;-43
2024/04/18 08:15:30;;;;;;;1.90;0.70;;;;;;;;;;5386008;26;85061;-46
2024/04/18 08:17:56;;;;;;;1.17;0.70;;;;;;;;;;5374888;26;86694;-43
2024/04/18 08:20:21;;;;;;;0.85;0.50;;;;;;;;;;5394312;25;84584;-50
2024/04/18 08:22:47;;;;;;;1.63;0.85;;;;;;;;;;5380671;26;85616;-46
2024/04/18 08:25:12;;;;;;;1.03;0.77;;;;;;;;;;5391881;26;85942;-45
2024/04/18 08:27:37;;;;;;;1.27;0.80;;;;;;;;;;5380265;26;86494;-48
2024/04/18 08:30:02;;;;;;;1.90;0.60;;;;;;;;;;5395542;25;85638;-49
2024/04/18 08:32:28;;;;;;;0.70;0.67;;;;;;;;;;5378857;26;85225;-50
2024/04/18 08:34:53;;;;;;;2.53;1.03;;;;;;;;;;5388741;26;85707;-47
2024/04/18 08:37:18;;;;;;;0.50;0.40;;;;;;;;;;5378041;26;85643;-45
2024/04/18 08:39:43;;;;;;;0.67;0.53;;;;;;;;;;5389058;26;87230;-46
2024/04/18 08:42:10;;;;;;;0.83;0.60;;;;;;;;;;5375407;26;85483;-45
2024/04/18 08:44:35;;;;;;;0.73;0.70;;;;;;;;;;5376701;26;84899;-45
2024/04/18 08:47:01;;;;;;;0.90;0.63;;;;;;;;;;5375817;26;85952;-43
2024/04/18 08:49:26;;;;;;;1.27;0.80;;;;;;;;;;5377111;25;85450;-44
2024/04/18 08:51:53;;;;;;;4.07;0.70;;;;;;;;;;5382504;26;89158;-44
2024/04/18 08:54:18;;;;;;;2.40;0.82;;;;;;;;;;5387833;26;85830;-47
2024/04/18 08:56:50;;;;;;;1.17;0.60;;;;;;;;;;5380469;26;85162;-45
2024/04/18 08:59:16;;;;;;;0.77;0.68;;;;;;;;;;5385593;25;85867;-44
2024/04/18 09:01:41;;;;;;;0.60;0.50;;;;;;;;;;5387435;26;84932;-44
2024/04/18 09:04:06;;;;;;;0.57;0.50;;;;;;;;;;5393228;25;85461;-43
2024/04/18 09:06:32;;;;;;;3.00;0.77;;;;;;;;;;5377687;26;88307;-47
2024/04/18 09:09:00;;;;;;;1.40;0.55;;;;;;;;;;5384948;26;85138;-48
2024/04/18 09:11:25;;;;;;;2.00;0.80;;;;;;;;;;5392341;25;85864;-45
2024/04/18 09:13:51;;;;;;;3.93;0.70;;;;;;;;;;5386896;26;85864;-46
2024/04/18 09:16:16;;;;;;;1.50;0.77;;;;;;;;;;5395375;25;86947;-47
2024/04/18 09:18:41;;;;;;;1.00;0.70;;;;;;;;;;5382177;26;86767;-46
2024/04/18 09:21:10;;;;;;;0.93;0.50;;;;;;;;;;5390909;25;85990;-44
2024/04/18 09:23:35;;;;;;;2.08;0.60;;;;;;;;;;5381033;26;85477;-46
2024/04/18 09:26:00;;;;;;;0.87;0.60;;;;;;;;;;5400924;26;85099;-49
2024/04/18 09:28:26;;;;;;;0.83;0.67;;;;;;;;;;5391529;26;85633;-43
2024/04/18 09:30:53;;;;;;;0.40;0.40;;;;;;;;;;5387464;25;85802;-47
2024/04/18 09:33:19;;;;;;;0.53;0.50;;;;;;;;;;5393749;26;84625;-45
2024/04/18 09:35:48;;;;;;;2.93;0.80;;;;;;;;;;5387606;26;85639;-46
2024/04/18 09:38:13;;;;;;;2.67;0.68;;;;;;;;;;5375120;26;86142;-46
2024/04/18 09:40:40;;;;;;;1.47;0.53;;;;;;;;;;5383432;26;86256;-58
2024/04/18 09:43:15;;;;;;;3.42;0.98;;;;;;;;;;5390092;25;85500;-56
2024/04/18 09:45:47;;;;;;;4.45;0.80;;;;;;;;;;5385992;26;85975;-46
2024/04/18 09:48:12;;;;;;;0.93;0.73;;;;;;;;;;5389928;26;85053;-53
2024/04/18 09:50:38;;;;;;;0.55;0.55;;;;;;;;;;5384408;25;85750;-46
2024/04/18 09:53:04;;;;;;;1.45;0.70;;;;;;;;;;5380876;26;85069;-48
2024/04/18 09:55:30;;;;;;;1.20;0.67;;;;;;;;;;5381935;26;85296;-47
2024/04/18 09:57:55;;;;;;;1.60;0.40;;;;;;;;;;5396998;26;85017;-47
2024/04/18 10:00:21;;;;;;;1.10;0.60;;;;;;;;;;5381114;26;85250;-49
2024/04/18 10:02:47;;;;;;;1.55;0.43;;;;;;;;;;5400941;26;85334;-47
2024/04/18 10:05:12;;;;;;;2.90;0.68;;;;;;;;;;5387943;26;86189;-52
2024/04/18 10:07:37;;;;;;;1.40;0.70;;;;;;;;;;5376782;26;85172;-47
2024/04/18 10:10:04;;;;;;;2.77;0.60;;;;;;;;;;5390683;25;85539;-46
2024/04/18 10:12:31;;;;;;;1.07;0.57;;;;;;;;;;5389029;25;85033;-46
2024/04/18 10:14:57;;;;;;;7.30;0.80;;;;;;;;;;5387336;26;85462;-43
2024/04/18 10:17:23;;;;;;;2.00;1.80;;;;;;;;;;5381746;26;86251;-45
2024/04/18 10:19:50;;;;;;;3.70;1.98;;;;;;;;;;5386549;26;85184;-48
2024/04/18 10:22:17;;;;;;;4.93;2.42;;;;;;;;;;5389780;25;84423;-42
2024/04/18 10:24:42;;;;;;;4.88;2.42;;;;;;;;;;5390196;26;85722;-46
2024/04/18 10:27:08;;;;;;;15.43;3.42;;;;;;;;;;5394532;25;85114;-45
2024/04/18 10:29:34;;;;;;;11.27;3.60;;;;;;;;;;5391450;25;86357;-44
2024/04/18 10:32:00;;;;;;;13.18;5.25;;;;;;;;;;5393359;26;85220;-43
2024/04/18 10:34:28;;;;;;;8.13;3.77;;;;;;;;;;5395069;26;85359;-49
2024/04/18 10:36:55;;;;;;;7.43;4.65;;;;;;;;;;5386529;26;85210;-52
2024/04/18 10:39:33;;;;;;;12.95;6.38;;;;;;;;;;5378859;26;85883;-51
2024/04/18 10:42:00;;;;;;;59.17;23.48;;;;;;;;;;5391841;26;85163;-48
2024/04/18 10:44:26;;;;;;;42.50;19.33;;;;;;;;;;5390805;26;85075;-49
2024/04/18 10:46:52;;;;;;;33.47;13.37;;;;;;;;;;5397362;26;84686;-47
2024/04/18 10:49:17;;;;;;;34.70;11.33;;;;;;;;;;5399668;25;85349;-51
2024/04/18 10:51:44;;;;;;;23.67;9.13;;;;;;;;;;5376802;26;85287;-42
2024/04/18 10:54:11;;;;;;;17.40;7.65;;;;;;;;;;5384524;25;86279;-48
2024/04/18 10:56:36;;;;;;;14.05;4.97;;;;;;;;;;5382654;26;86827;-44
2024/04/18 10:59:01;;;;;;;11.43;4.63;;;;;;;;;;5385637;26;85121;-50
2024/04/18 11:01:26;;;;;;;8.40;3.50;;;;;;;;;;5389955;25;86596;-47
2024/04/18 11:03:52;;;;;;;10.50;3.58;;;;;;;;;;5447100;25;86475;-46
2024/04/18 11:06:17;;;;;;;7.03;2.90;;;;;;;;;;5388431;26;85288;-47
2024/04/18 11:08:45;;;;;;;8.63;2.70;;;;;;;;;;5393089;26;85154;-44
2024/04/18 11:11:11;;;;;;;5.65;2.78;;;;;;;;;;5389003;25;85781;-44
2024/04/18 11:13:36;;;;;;;8.27;2.67;;;;;;;;;;5392101;25;85135;-45
2024/04/18 11:16:02;;;;;;;5.90;2.77;;;;;;;;;;5392238;26;85157;-47
2024/04/18 11:18:27;;;;;;;4.13;2.37;;;;;;;;;;5383750;26;86765;-47
2024/04/18 11:20:52;;;;;;;3.83;1.87;;;;;;;;;;5386958;26;87264;-48
2024/04/18 11:23:21;;;;;;;4.73;2.17;;;;;;;;;;5396217;25;84990;-45
2024/04/18 11:25:46;;;;;;;5.27;2.27;;;;;;;;;;5389879;26;85210;-46
2024/04/18 11:28:12;;;;;;;4.07;1.77;;;;;;;;;;5386732;26;85140;-44
2024/04/18 11:30:41;;;;;;;4.47;1.70;;;;;;;;;;5397077;25;85290;-48
2024/04/18 11:33:08;;;;;;;4.75;1.92;;;;;;;;;;5390375;26;85067;-43
2024/04/18 11:35:33;;;;;;;6.30;1.70;;;;;;;;;;5388149;26;85639;-44
2024/04/18 11:38:02;;;;;;;4.37;1.70;;;;;;;;;;5384778;26;85229;-44
2024/04/18 11:40:27;;;;;;;3.92;1.27;;;;;;;;;;5388623;26;85450;-47
2024/04/18 11:42:52;;;;;;;2.60;1.80;;;;;;;;;;5382222;26;87799;-47
2024/04/18 11:45:17;;;;;;;7.53;1.90;;;;;;;;;;5400332;26;85015;-47
2024/04/18 11:47:43;;;;;;;5.60;1.50;;;;;;;;;;5385148;26;86371;-42
2024/04/18 11:50:08;;;;;;;1.20;0.93;;;;;;;;;;5398445;25;88312;-42
2024/04/18 11:52:33;;;;;;;2.87;0.97;;;;;;;;;;5383914;26;85309;-45
2024/04/18 11:54:58;;;;;;;2.23;0.97;;;;;;;;;;5381924;26;85131;-43
2024/04/18 11:57:24;;;;;;;3.87;1.00;;;;;;;;;;5385983;25;85532;-45
2024/04/18 11:59:49;;;;;;;4.73;1.40;;;;;;;;;;5384993;25;85707;-46
2024/04/18 12:02:14;;;;;;;2.33;1.35;;;;;;;;;;5390609;26;85770;-48
2024/04/18 12:04:39;;;;;;;56.43;19.50;;;;;;;;;;5383925;26;85378;-45
2024/04/18 12:07:05;;;;;;;39.47;14.27;;;;;;;;;;5381133;26;86045;-46
2024/04/18 12:09:34;;;;;;;29.43;8.70;;;;;;;;;;5377497;25;86027;-47
2024/04/18 12:12:00;;;;;;;14.98;5.93;;;;;;;;;;5378509;26;85514;-46
2024/04/18 12:14:26;;;;;;;12.52;5.43;;;;;;;;;;5385322;26;85076;-44
2024/04/18 12:16:51;;;;;;;19.20;4.70;;;;;;;;;;5384124;26;86018;-46
2024/04/18 12:19:16;;;;;;;11.27;4.37;;;;;;;;;;5382969;26;85456;-44
2024/04/18 12:21:41;;;;;;;12.43;3.73;;;;;;;;;;5381645;26;85819;-48
2024/04/18 12:24:06;;;;;;;10.00;3.80;;;;;;;;;;5381961;26;84530;-44
2024/04/18 12:26:32;;;;;;;12.23;3.77;;;;;;;;;;5383958;26;85551;-43
2024/04/18 12:28:57;;;;;;;13.20;3.40;;;;;;;;;;5383111;26;85922;-42
2024/04/18 12:31:22;;;;;;;10.60;4.07;;;;;;;;;;5380339;26;87231;-46
2024/04/18 12:33:47;;;;;;;8.90;3.20;;;;;;;;;;5381395;26;85553;-43
2024/04/18 12:36:13;;;;;;;6.72;3.05;;;;;;;;;;5384609;26;86100;-47
2024/04/18 12:38:39;;;;;;;5.88;2.58;;;;;;;;;;5379895;26;85780;-45
2024/04/18 12:41:04;;;;;;;7.00;2.47;;;;;;;;;;5385431;26;85439;-44
2024/04/18 12:43:30;;;;;;;8.50;2.33;;;;;;;;;;5377404;26;85563;-44
2024/04/18 12:45:55;;;;;;;6.37;2.20;;;;;;;;;;5382071;26;85311;-47
2024/04/18 12:48:21;;;;;;;13.37;2.37;;;;;;;;;;5386735;25;85367;-48
2024/04/18 12:50:46;;;;;;;8.13;2.30;;;;;;;;;;5378858;26;85234;-43
2024/04/18 12:53:11;;;;;;;4.50;1.70;;;;;;;;;;5385947;25;85575;-44
2024/04/18 12:55:36;;;;;;;8.83;2.20;;;;;;;;;;5383290;26;86818;-47
2024/04/18 12:58:02;;;;;;;10.77;2.20;;;;;;;;;;5387372;26;86131;-43
2024/04/18 13:00:27;;;;;;;10.65;2.08;;;;;;;;;;5382832;25;85439;-44
2024/04/18 13:02:52;;;;;;;9.23;1.93;;;;;;;;;;5383995;26;86084;-45
2024/04/18 13:05:17;;;;;;;4.07;2.00;;;;;;;;;;5374634;26;87413;-48
2024/04/18 13:07:43;;;;;;;6.33;1.37;;;;;;;;;;5384604;26;85776;-42
2024/04/18 13:10:09;;;;;;;10.30;1.73;;;;;;;;;;5380479;26;85028;-45
2024/04/18 13:12:34;;;;;;;5.53;1.70;;;;;;;;;;5374644;26;87247;-47
2024/04/18 13:14:59;;;;;;;4.20;1.67;;;;;;;;;;5384090;26;86657;-46
2024/04/18 13:17:25;;;;;;;4.33;1.67;;;;;;;;;;5374465;26;85529;-43
2024/04/18 13:19:53;;;;;;;6.30;0.90;;;;;;;;;;5380000;26;86184;-43
2024/04/18 13:22:19;;;;;;;8.05;1.55;;;;;;;;;;5379447;26;89271;-44
2024/04/18 13:24:44;;;;;;;1.50;1.30;;;;;;;;;;5385437;26;85700;-49
2024/04/18 13:27:10;;;;;;;3.37;1.53;;;;;;;;;;5378260;26;86413;-45
2024/04/18 13:29:35;;;;;;;8.80;1.53;;;;;;;;;;5377769;26;85637;-46
2024/04/18 13:32:00;;;;;;;3.77;1.20;;;;;;;;;;5379521;26;85841;-42
2024/04/18 13:34:26;;;;;;;1.40;0.90;;;;;;;;;;5382601;26;85624;-46
2024/04/18 13:36:51;;;;;;;2.70;1.20;;;;;;;;;;5377030;26;85129;-44
2024/04/18 13:39:17;;;;;;;3.23;1.20;;;;;;;;;;5378041;26;85191;-49
2024/04/18 13:41:45;;;;;;;7.03;1.17;;;;;;;;;;5438499;25;86918;-51
2024/04/18 13:44:10;;;;;;;4.10;1.40;;;;;;;;;;5382456;26;86486;-47
2024/04/18 13:46:36;;;;;;;3.90;0.93;;;;;;;;;;5384152;26;86759;-44
2024/04/18 13:49:01;;;;;;;4.82;1.40;;;;;;;;;;5375837;25;85474;-47
2024/04/18 13:51:26;;;;;;;2.20;1.07;;;;;;;;;;5389269;26;85306;-43
2024/04/18 13:53:53;;;;;;;3.00;1.00;;;;;;;;;;5381500;26;85723;-44
2024/04/18 13:56:18;;;;;;;2.40;1.00;;;;;;;;;;5388585;26;86868;-47
2024/04/18 13:58:44;;;;;;;2.30;0.90;;;;;;;;;;5444549;25;88382;-48
2024/04/18 14:01:09;;;;;;;4.63;1.47;;;;;;;;;;5382879;26;85140;-45
2024/04/18 14:03:34;;;;;;;1.73;1.00;;;;;;;;;;5386695;26;85551;-43
2024/04/18 14:05:59;;;;;;;1.73;1.13;;;;;;;;;;5385782;26;86753;-43
2024/04/18 14:08:25;;;;;;;2.17;0.70;;;;;;;;;;5384363;26;86061;-48
2024/04/18 14:10:50;;;;;;;4.88;1.35;;;;;;;;;;5383679;26;86000;-47
2024/04/18 14:13:15;;;;;;;2.20;0.90;;;;;;;;;;5387110;26;86221;-45
2024/04/18 14:18:47;;;;;;;0.60;0.53;;;;;;;;;;5390489;26;85690;-48
2024/04/18 14:21:09;;;;;;;2.43;1.00;;;;;;;;;;5379548;26;85619;-57
2024/04/18 14:23:35;;;;;;;1.33;0.80;;;;;;;;;;5388282;26;85865;-59
2024/04/18 14:26:02;;;;;;;0.50;0.40;;;;;;;;;;5381946;26;85517;-60
2024/04/18 14:28:27;;;;;;;2.30;0.93;;;;;;;;;;5381801;26;85373;-60
2024/04/18 14:30:52;;;;;;;1.10;0.70;;;;;;;;;;5373655;26;85576;-59
2024/04/18 14:33:17;;;;;;;1.17;0.70;;;;;;;;;;5379615;26;86552;-60
2024/04/18 14:35:42;;;;;;;1.50;0.40;;;;;;;;;;5385293;26;85217;-60